createdAt,value
2018-08-03T00:00:46.558Z,22.00
2018-08-03T00:03:15.372Z,21.90
2018-08-03T00:05:44.441Z,21.90
2018-08-03T00:08:13.324Z,21.80
2018-08-03T00:10:42.124Z,21.80
2018-08-03T00:13:10.926Z,21.80
2018-08-03T00:15:39.795Z,21.80
2018-08-03T00:18:08.653Z,21.90
2018-08-03T00:20:37.456Z,21.90
2018-08-03T00:23:06.299Z,21.80
2018-08-03T00:25:35.127Z,21.80
2018-08-03T00:28:03.926Z,21.80
2018-08-03T00:30:32.715Z,21.70
2018-08-03T00:35:31.133Z,21.70
2018-08-03T00:37:59.986Z,21.70
2018-08-03T00:40:28.831Z,21.70
2018-08-03T00:42:58.214Z,21.70
2018-08-03T00:45:27.063Z,21.70
2018-08-03T00:47:55.930Z,21.70
2018-08-03T00:50:24.738Z,21.60
2018-08-03T00:52:53.611Z,21.50
2018-08-03T00:55:22.494Z,21.50
2018-08-03T00:57:51.619Z,21.50
2018-08-03T01:00:20.551Z,21.50
2018-08-03T01:02:49.429Z,21.40
2018-08-03T01:05:18.319Z,21.40
2018-08-03T01:07:47.150Z,21.40
2018-08-03T01:10:16.039Z,21.40
2018-08-03T01:12:46.843Z,21.30
2018-08-03T01:15:15.794Z,21.30
2018-08-03T01:17:44.680Z,21.40
2018-08-03T01:20:13.590Z,21.30
2018-08-03T01:22:42.413Z,21.30
2018-08-03T01:25:11.249Z,21.20
2018-08-03T01:27:40.273Z,21.20
2018-08-03T01:30:09.082Z,21.20
2018-08-03T01:32:37.988Z,21.20
2018-08-03T01:35:06.787Z,21.20
2018-08-03T01:37:36.342Z,21.10
2018-08-03T01:40:05.376Z,21.10
2018-08-03T01:42:34.226Z,21.10
2018-08-03T01:45:03.045Z,21.00
2018-08-03T01:47:32.167Z,21.00
2018-08-03T01:50:01.358Z,21.00
2018-08-03T01:52:30.175Z,21.00
2018-08-03T01:54:59.036Z,21.00
2018-08-03T01:57:27.903Z,21.00
2018-08-03T01:59:56.741Z,21.00
2018-08-03T02:02:25.535Z,20.90
2018-08-03T02:04:54.395Z,20.80
2018-08-03T02:07:23.231Z,20.70
2018-08-03T02:12:21.211Z,20.70
2018-08-03T02:14:50.040Z,20.70
2018-08-03T02:17:18.928Z,20.70
2018-08-03T02:19:47.839Z,20.70
2018-08-03T02:22:16.660Z,20.70
2018-08-03T02:24:45.859Z,20.60
2018-08-03T02:27:14.779Z,20.50
2018-08-03T02:29:43.655Z,20.50
2018-08-03T02:34:40.999Z,20.60
2018-08-03T02:37:09.852Z,20.50
2018-08-03T02:39:38.660Z,20.60
2018-08-03T02:42:07.463Z,20.50
2018-08-03T02:44:36.456Z,20.50
2018-08-03T02:47:05.539Z,20.60
2018-08-03T02:49:34.342Z,20.60
2018-08-03T02:52:03.421Z,20.50
2018-08-03T02:54:32.410Z,20.40
2018-08-03T02:57:01.237Z,20.50
2018-08-03T02:59:30.385Z,20.50
2018-08-03T03:01:59.139Z,20.50
2018-08-03T03:04:28.007Z,20.50
2018-08-03T03:06:56.840Z,20.50
2018-08-03T03:09:25.656Z,20.50
2018-08-03T03:11:54.483Z,20.50
2018-08-03T03:14:23.448Z,20.50
2018-08-03T03:16:52.527Z,20.50
2018-08-03T03:19:21.333Z,20.40
2018-08-03T03:21:50.155Z,20.50
2018-08-03T03:24:19.055Z,20.40
2018-08-03T03:26:47.910Z,20.40
2018-08-03T03:29:16.706Z,20.40
2018-08-03T03:31:45.523Z,20.40
2018-08-03T03:34:14.555Z,20.30
2018-08-03T03:36:43.383Z,20.40
2018-08-03T03:39:13.663Z,20.40
2018-08-03T03:41:42.751Z,20.40
2018-08-03T03:44:11.567Z,20.30
2018-08-03T03:46:40.459Z,20.30
2018-08-03T03:49:09.270Z,20.30
2018-08-03T03:51:38.074Z,20.30
2018-08-03T03:54:07.027Z,20.30
2018-08-03T03:56:35.822Z,20.30
2018-08-03T03:59:04.810Z,20.30
2018-08-03T04:01:33.664Z,20.30
2018-08-03T04:04:02.475Z,20.20
2018-08-03T04:06:31.267Z,20.20
2018-08-03T04:09:00.084Z,20.20
2018-08-03T04:13:57.334Z,20.20
2018-08-03T04:16:26.147Z,20.20
2018-08-03T04:21:23.423Z,20.20
2018-08-03T04:23:52.291Z,20.20
2018-08-03T04:26:21.079Z,20.20
2018-08-03T04:28:49.972Z,20.10
2018-08-03T04:31:18.819Z,20.10
2018-08-03T04:33:47.863Z,20.10
2018-08-03T04:36:16.653Z,20.00
2018-08-03T04:38:45.572Z,20.10
2018-08-03T04:41:14.383Z,20.10
2018-08-03T04:43:43.207Z,20.10
2018-08-03T04:46:12.022Z,20.10
2018-08-03T04:48:40.961Z,20.10
2018-08-03T04:51:09.740Z,20.10
2018-08-03T04:53:38.575Z,20.10
2018-08-03T04:56:07.381Z,20.10
2018-08-03T04:58:36.184Z,20.10
2018-08-03T05:01:05.209Z,20.10
2018-08-03T05:03:33.990Z,20.10
2018-08-03T05:06:02.832Z,20.10
2018-08-03T05:08:31.628Z,20.10
2018-08-03T05:11:00.444Z,20.20
2018-08-03T05:13:29.314Z,20.30
2018-08-03T05:15:58.135Z,20.30
2018-08-03T05:18:26.920Z,20.40
2018-08-03T05:20:55.726Z,20.40
2018-08-03T05:23:24.519Z,20.50
2018-08-03T05:25:53.331Z,20.50
2018-08-03T05:28:22.155Z,20.60
2018-08-03T05:30:50.956Z,20.60
2018-08-03T05:33:19.750Z,20.70
2018-08-03T05:35:48.599Z,20.70
2018-08-03T05:38:17.330Z,20.80
2018-08-03T05:40:46.209Z,20.80
2018-08-03T05:43:14.978Z,20.90
2018-08-03T05:45:43.767Z,20.90
2018-08-03T05:48:12.575Z,21.00
2018-08-03T05:50:41.409Z,21.00
2018-08-03T05:53:10.196Z,21.00
2018-08-03T05:55:39.063Z,21.10
2018-08-03T05:58:07.872Z,21.20
2018-08-03T06:00:36.665Z,21.30
2018-08-03T06:03:05.431Z,21.40
2018-08-03T06:05:34.283Z,21.40
2018-08-03T06:08:03.116Z,21.50
2018-08-03T06:10:31.874Z,21.60
2018-08-03T06:13:00.741Z,21.60
2018-08-03T06:15:29.531Z,21.70
2018-08-03T06:17:58.320Z,21.70
2018-08-03T06:20:27.145Z,21.80
2018-08-03T06:22:55.974Z,21.80
2018-08-03T06:25:24.991Z,21.90
2018-08-03T06:27:53.879Z,22.00
2018-08-03T06:30:22.684Z,22.00
2018-08-03T06:32:51.467Z,22.00
2018-08-03T06:35:20.268Z,22.10
2018-08-03T06:37:49.059Z,22.10
2018-08-03T06:40:17.836Z,22.10
2018-08-03T06:42:46.640Z,22.10
2018-08-03T06:45:15.444Z,22.20
2018-08-03T06:47:44.275Z,22.20
2018-08-03T06:50:13.131Z,22.30
2018-08-03T06:52:41.915Z,22.40
2018-08-03T06:55:10.719Z,22.40
2018-08-03T06:57:39.544Z,22.40
2018-08-03T07:00:08.379Z,22.40
2018-08-03T07:02:37.219Z,22.50
2018-08-03T07:05:06.011Z,22.70
2018-08-03T07:07:34.817Z,22.80
2018-08-03T07:10:03.599Z,22.90
2018-08-03T07:12:32.437Z,22.90
2018-08-03T07:15:01.317Z,22.90
2018-08-03T07:17:30.048Z,23.00
2018-08-03T07:19:58.940Z,23.10
2018-08-03T07:22:27.671Z,23.10
2018-08-03T07:24:56.624Z,23.20
2018-08-03T07:27:25.460Z,23.30
2018-08-03T07:29:54.271Z,23.40
2018-08-03T07:32:23.055Z,23.60
2018-08-03T07:37:20.418Z,23.80
2018-08-03T07:39:49.250Z,23.80
2018-08-03T07:42:18.043Z,23.90
2018-08-03T07:44:46.843Z,24.00
2018-08-03T07:47:15.838Z,24.10
2018-08-03T07:49:44.628Z,24.10
2018-08-03T07:52:13.472Z,24.10
2018-08-03T07:54:42.281Z,24.30
2018-08-03T07:57:11.223Z,24.30
2018-08-03T07:59:40.024Z,24.40
2018-08-03T08:02:08.808Z,24.40
2018-08-03T08:04:37.594Z,24.60
2018-08-03T08:07:06.395Z,24.60
2018-08-03T08:09:35.241Z,24.70
2018-08-03T08:12:04.217Z,24.70
2018-08-03T08:14:32.999Z,24.80
2018-08-03T08:17:01.874Z,24.90
2018-08-03T08:19:30.602Z,25.00
2018-08-03T08:21:59.401Z,25.00
2018-08-03T08:24:28.488Z,25.00
2018-08-03T08:26:57.294Z,25.20
2018-08-03T08:29:26.080Z,25.30
2018-08-03T08:31:54.915Z,25.40
2018-08-03T08:34:23.732Z,25.50
2018-08-03T08:36:52.547Z,25.50
2018-08-03T08:39:21.335Z,25.60
2018-08-03T08:41:50.144Z,25.80
2018-08-03T08:46:47.491Z,25.90
2018-08-03T08:49:16.340Z,26.00
2018-08-03T08:51:45.133Z,26.00
2018-08-03T08:54:13.939Z,26.20
2018-08-03T08:56:42.775Z,26.30
2018-08-03T08:59:11.651Z,26.40
2018-08-03T09:01:40.551Z,26.60
2018-08-03T09:04:09.363Z,26.60
2018-08-03T09:06:38.169Z,26.50
2018-08-03T09:09:08.566Z,26.60
2018-08-03T09:11:37.707Z,26.70
2018-08-03T09:14:06.567Z,26.80
2018-08-03T09:16:35.349Z,27.00
2018-08-03T09:19:04.178Z,27.10
2018-08-03T09:21:32.979Z,27.30
2018-08-03T09:24:01.792Z,27.40
2018-08-03T09:26:30.578Z,27.50
2018-08-03T09:28:59.374Z,27.60
2018-08-03T09:31:28.186Z,27.80
2018-08-03T09:33:57.027Z,27.90
2018-08-03T09:36:25.953Z,28.10
2018-08-03T09:41:23.159Z,28.50
2018-08-03T09:43:52.131Z,28.80
2018-08-03T09:46:20.983Z,28.90
2018-08-03T09:48:49.779Z,29.20
2018-08-03T09:51:18.588Z,29.20
2018-08-03T09:53:47.375Z,29.40
2018-08-03T09:56:16.195Z,29.70
2018-08-03T09:58:45.055Z,29.70
2018-08-03T10:03:43.004Z,30.10
2018-08-03T10:06:12.736Z,30.30
2018-08-03T10:08:41.547Z,30.60
2018-08-03T10:11:10.807Z,30.70
2018-08-03T10:13:39.667Z,30.90
2018-08-03T10:16:08.468Z,31.10
2018-08-03T10:18:37.255Z,30.90
2018-08-03T10:21:06.059Z,31.00
2018-08-03T10:23:34.851Z,31.20
2018-08-03T10:26:03.651Z,31.50
2018-08-03T10:28:32.566Z,31.70
2018-08-03T10:31:01.348Z,31.90
2018-08-03T10:33:30.155Z,32.00
2018-08-03T10:35:58.942Z,32.10
2018-08-03T10:38:27.736Z,31.90
2018-08-03T10:40:56.509Z,31.90
2018-08-03T10:43:25.390Z,31.80
2018-08-03T10:45:54.354Z,32.10
2018-08-03T10:48:23.148Z,32.30
2018-08-03T10:50:52.148Z,32.50
2018-08-03T10:53:20.965Z,32.60
2018-08-03T10:55:49.808Z,32.40
2018-08-03T10:58:18.666Z,32.30
2018-08-03T11:00:47.391Z,32.20
2018-08-03T11:05:44.744Z,32.30
2018-08-03T11:08:13.545Z,32.50
2018-08-03T11:10:42.401Z,32.50
2018-08-03T11:13:11.206Z,32.60
2018-08-03T11:15:39.980Z,32.60
2018-08-03T11:18:08.807Z,32.70
2018-08-03T11:20:37.671Z,32.70
2018-08-03T11:23:06.520Z,32.90
2018-08-03T11:25:35.323Z,32.90
2018-08-03T11:28:04.091Z,33.10
2018-08-03T11:30:32.882Z,33.30
2018-08-03T11:33:01.643Z,33.40
2018-08-03T11:35:30.434Z,33.40
2018-08-03T11:37:59.268Z,33.40
2018-08-03T11:40:28.082Z,33.60
2018-08-03T11:42:56.847Z,33.70
2018-08-03T11:45:25.656Z,33.80
2018-08-03T11:47:54.480Z,33.80
2018-08-03T11:50:23.300Z,33.70
2018-08-03T11:52:52.087Z,33.90
2018-08-03T11:55:20.872Z,33.90
2018-08-03T11:57:49.703Z,33.80
2018-08-03T12:00:18.543Z,33.70
2018-08-03T12:02:47.374Z,33.70
2018-08-03T12:05:16.168Z,33.70
2018-08-03T12:07:45.043Z,34.00
2018-08-03T12:10:13.894Z,34.30
2018-08-03T12:12:42.678Z,34.50
2018-08-03T12:15:11.490Z,34.50
2018-08-03T12:17:40.363Z,34.50
2018-08-03T12:20:09.199Z,34.50
2018-08-03T12:22:38.025Z,33.90
2018-08-03T12:25:06.831Z,34.00
2018-08-03T12:27:35.719Z,34.10
2018-08-03T12:30:05.249Z,34.40
2018-08-03T12:32:34.135Z,34.60
2018-08-03T12:35:02.984Z,34.80
2018-08-03T12:37:31.796Z,34.90
2018-08-03T12:40:00.599Z,34.90
2018-08-03T12:42:29.368Z,35.00
2018-08-03T12:44:58.168Z,35.00
2018-08-03T12:47:26.969Z,34.80
2018-08-03T12:49:55.791Z,35.00
2018-08-03T12:52:24.872Z,35.20
2018-08-03T12:54:53.651Z,35.20
2018-08-03T12:57:22.463Z,35.30
2018-08-03T12:59:51.279Z,35.10
2018-08-03T13:02:20.055Z,34.40
2018-08-03T13:04:48.897Z,33.90
2018-08-03T13:07:17.710Z,33.80
2018-08-03T13:09:46.496Z,33.50
2018-08-03T13:12:15.350Z,33.30
2018-08-03T13:14:44.304Z,33.30
2018-08-03T13:17:13.355Z,33.60
2018-08-03T13:19:42.143Z,33.90
2018-08-03T13:22:17.455Z,34.20
2018-08-03T13:24:46.237Z,34.30
2018-08-03T13:27:15.058Z,34.70
2018-08-03T13:29:43.840Z,35.00
2018-08-03T13:32:12.656Z,35.20
2018-08-03T13:34:41.548Z,35.20
2018-08-03T13:37:10.491Z,35.50
2018-08-03T13:39:39.291Z,35.40
2018-08-03T13:42:08.111Z,35.50
2018-08-03T13:44:37.011Z,35.50
2018-08-03T13:47:05.831Z,35.20
2018-08-03T13:49:34.643Z,35.20
2018-08-03T13:52:03.461Z,35.10
2018-08-03T13:54:34.847Z,34.90
2018-08-03T13:57:03.776Z,35.10
2018-08-03T13:59:32.555Z,35.10
2018-08-03T14:02:12.804Z,35.10
2018-08-03T14:04:41.651Z,35.20
2018-08-03T14:07:10.480Z,35.50
2018-08-03T14:09:39.636Z,35.70
2018-08-03T14:12:08.504Z,35.80
2018-08-03T14:14:37.606Z,35.70
2018-08-03T14:17:06.579Z,36.00
2018-08-03T14:19:35.464Z,36.00
2018-08-03T14:22:04.544Z,36.10
2018-08-03T14:27:02.530Z,36.20
2018-08-03T14:31:59.799Z,35.90
2018-08-03T14:34:28.588Z,36.00
2018-08-03T14:36:57.454Z,35.40
2018-08-03T14:39:26.257Z,35.50
2018-08-03T14:41:55.070Z,35.70
2018-08-03T14:44:23.871Z,35.80
2018-08-03T14:46:52.679Z,35.90
2018-08-03T14:49:21.757Z,36.00
2018-08-03T14:51:52.297Z,36.00
2018-08-03T14:54:21.084Z,35.90
2018-08-03T14:56:49.914Z,36.00
2018-08-03T14:59:18.655Z,35.80
2018-08-03T15:01:47.601Z,35.80
2018-08-03T15:04:16.434Z,35.90
2018-08-03T15:06:45.332Z,35.90
2018-08-03T15:09:14.130Z,35.80
2018-08-03T15:11:42.900Z,35.50
2018-08-03T15:14:11.695Z,35.80
2018-08-03T15:16:40.573Z,35.60
2018-08-03T15:19:09.376Z,35.90
2018-08-03T15:21:38.233Z,36.10
2018-08-03T15:24:07.016Z,36.00
2018-08-03T15:26:35.909Z,35.90
2018-08-03T15:29:04.692Z,36.00
2018-08-03T15:31:33.469Z,35.70
2018-08-03T15:34:02.270Z,35.50
2018-08-03T15:36:31.050Z,35.30
2018-08-03T15:38:59.905Z,35.50
2018-08-03T15:41:28.679Z,35.60
2018-08-03T15:43:57.482Z,35.60
2018-08-03T15:46:26.259Z,35.70
2018-08-03T15:48:55.047Z,35.60
2018-08-03T15:51:23.855Z,35.30
2018-08-03T15:53:52.671Z,35.10
2018-08-03T15:56:21.488Z,35.30
2018-08-03T15:58:50.612Z,35.40
2018-08-03T16:01:19.443Z,35.10
2018-08-03T16:03:48.228Z,35.10
2018-08-03T16:06:17.091Z,35.00
2018-08-03T16:08:45.915Z,34.90
2018-08-03T16:11:14.711Z,35.00
2018-08-03T16:13:43.519Z,35.00
2018-08-03T16:16:12.305Z,34.90
2018-08-03T16:18:41.219Z,34.90
2018-08-03T16:21:09.955Z,34.70
2018-08-03T16:23:38.888Z,34.60
2018-08-03T16:26:07.670Z,34.70
2018-08-03T16:28:36.448Z,34.70
2018-08-03T16:31:05.248Z,34.70
2018-08-03T16:33:34.065Z,34.70
2018-08-03T16:36:02.840Z,34.70
2018-08-03T16:38:31.703Z,34.60
2018-08-03T16:41:00.527Z,34.60
2018-08-03T16:43:29.331Z,34.40
2018-08-03T16:45:58.110Z,34.20
2018-08-03T16:48:26.930Z,34.10
2018-08-03T16:50:55.734Z,34.00
2018-08-03T16:53:24.653Z,34.00
2018-08-03T16:55:53.441Z,33.90
2018-08-03T16:58:22.308Z,33.80
2018-08-03T17:00:51.181Z,33.70
2018-08-03T17:03:19.967Z,33.60
2018-08-03T17:05:48.803Z,33.70
2018-08-03T17:08:17.631Z,33.60
2018-08-03T17:10:46.437Z,33.50
2018-08-03T17:13:15.269Z,33.30
2018-08-03T17:15:44.118Z,33.30
2018-08-03T17:18:13.057Z,33.30
2018-08-03T17:20:41.846Z,33.30
2018-08-03T17:23:10.643Z,33.20
2018-08-03T17:25:39.534Z,33.20
2018-08-03T17:28:08.333Z,33.20
2018-08-03T17:30:37.130Z,33.00
2018-08-03T17:33:05.995Z,32.90
2018-08-03T17:35:34.784Z,32.90
2018-08-03T17:38:03.575Z,32.80
2018-08-03T17:40:32.408Z,32.60
2018-08-03T17:43:01.195Z,32.50
2018-08-03T17:45:31.024Z,32.40
2018-08-03T17:47:59.845Z,32.30
2018-08-03T17:50:28.681Z,32.20
2018-08-03T17:52:57.440Z,32.20
2018-08-03T17:55:26.236Z,32.10
2018-08-03T17:57:55.055Z,31.90
2018-08-03T18:00:23.831Z,31.50
2018-08-03T18:02:52.634Z,31.20
2018-08-03T18:05:21.528Z,31.10
2018-08-03T18:07:50.323Z,31.00
2018-08-03T18:10:19.947Z,30.80
2018-08-03T18:12:48.778Z,30.70
2018-08-03T18:15:17.568Z,30.60
2018-08-03T18:17:46.407Z,30.50
2018-08-03T18:20:15.320Z,30.40
2018-08-03T18:22:44.199Z,30.20
2018-08-03T18:25:13.027Z,30.10
2018-08-03T18:27:41.834Z,29.80
2018-08-03T18:30:10.648Z,29.70
2018-08-03T18:32:39.504Z,29.60
2018-08-03T18:35:08.307Z,29.50
2018-08-03T18:37:37.658Z,29.40
2018-08-03T18:40:08.323Z,29.40
2018-08-03T18:42:37.127Z,29.20
2018-08-03T18:45:06.688Z,29.00
2018-08-03T18:47:35.614Z,28.80
2018-08-03T18:52:32.944Z,28.60
2018-08-03T18:55:01.841Z,28.50
2018-08-03T18:57:30.651Z,28.30
2018-08-03T18:59:59.474Z,28.30
2018-08-03T19:02:28.260Z,28.30
2018-08-03T19:04:57.064Z,28.30
2018-08-03T19:07:25.863Z,28.30
2018-08-03T19:09:54.683Z,28.20
2018-08-03T19:12:23.461Z,28.20
2018-08-03T19:14:52.263Z,28.00
2018-08-03T19:17:21.065Z,28.00
2018-08-03T19:19:49.895Z,27.90
2018-08-03T19:22:18.704Z,27.90
2018-08-03T19:24:47.499Z,27.80
2018-08-03T19:27:16.283Z,27.70
2018-08-03T19:29:45.103Z,27.60
2018-08-03T19:32:13.941Z,27.40
2018-08-03T19:34:42.748Z,27.40
2018-08-03T19:37:11.569Z,27.40
2018-08-03T19:39:40.660Z,27.30
2018-08-03T19:44:37.948Z,27.20
2018-08-03T19:47:06.748Z,27.20
2018-08-03T19:49:35.544Z,27.10
2018-08-03T19:52:04.342Z,27.10
2018-08-03T19:54:33.188Z,27.00
2018-08-03T19:57:02.014Z,26.80
2018-08-03T19:59:30.993Z,26.80
2018-08-03T20:01:59.908Z,26.80
2018-08-03T20:04:28.794Z,26.60
2018-08-03T20:06:57.615Z,26.60
2018-08-03T20:09:26.454Z,26.50
2018-08-03T20:11:55.243Z,26.40
2018-08-03T20:14:24.158Z,26.30
2018-08-03T20:16:53.099Z,26.30
2018-08-03T20:19:21.919Z,26.30
2018-08-03T20:21:50.720Z,26.20
2018-08-03T20:24:19.513Z,26.10
2018-08-03T20:26:48.384Z,26.10
2018-08-03T20:29:17.203Z,26.00
2018-08-03T20:31:46.068Z,25.90
2018-08-03T20:34:14.968Z,25.90
2018-08-03T20:36:44.079Z,25.80
2018-08-03T20:39:13.009Z,25.70
2018-08-03T20:41:41.887Z,25.70
2018-08-03T20:44:10.686Z,25.70
2018-08-03T20:46:39.500Z,25.60
2018-08-03T20:49:08.292Z,25.60
2018-08-03T20:51:37.071Z,25.60
2018-08-03T20:54:05.907Z,25.50
2018-08-03T20:56:34.723Z,25.50
2018-08-03T20:59:03.576Z,25.50
2018-08-03T21:01:32.461Z,25.40
2018-08-03T21:04:01.259Z,25.40
2018-08-03T21:06:30.107Z,25.30
2018-08-03T21:08:58.948Z,25.30
2018-08-03T21:11:27.784Z,25.20
2018-08-03T21:16:25.079Z,25.20
2018-08-03T21:18:53.896Z,25.20
2018-08-03T21:21:22.753Z,25.10
2018-08-03T21:23:51.535Z,25.00
2018-08-03T21:26:20.314Z,25.00
2018-08-03T21:28:49.107Z,24.90
2018-08-03T21:31:17.947Z,24.80
2018-08-03T21:33:46.850Z,24.80
2018-08-03T21:36:15.694Z,24.80
2018-08-03T21:38:44.625Z,24.80
2018-08-03T21:41:13.448Z,24.80
2018-08-03T21:43:42.296Z,24.70
2018-08-03T21:46:11.020Z,24.60
2018-08-03T21:48:39.972Z,24.60
2018-08-03T21:51:08.854Z,24.60
2018-08-03T21:53:37.703Z,24.50
2018-08-03T21:56:06.525Z,24.50
2018-08-03T21:58:35.577Z,24.40
2018-08-03T22:01:04.479Z,24.30
2018-08-03T22:03:33.269Z,24.30
2018-08-03T22:06:02.063Z,24.30
2018-08-03T22:08:30.895Z,24.20
2018-08-03T22:10:59.724Z,24.20
2018-08-03T22:13:28.632Z,24.10
2018-08-03T22:15:57.535Z,24.20
2018-08-03T22:18:26.477Z,24.10
2018-08-03T22:20:55.444Z,24.20
2018-08-03T22:23:24.231Z,24.10
2018-08-03T22:25:53.076Z,24.10
2018-08-03T22:28:21.965Z,24.10
2018-08-03T22:30:50.743Z,24.00
2018-08-03T22:33:19.582Z,24.00
2018-08-03T22:35:48.453Z,24.00
2018-08-03T22:38:17.228Z,23.90
2018-08-03T22:40:46.167Z,23.90
2018-08-03T22:43:14.955Z,23.80
2018-08-03T22:45:43.757Z,23.80
2018-08-03T22:48:13.090Z,23.80
2018-08-03T22:50:42.020Z,23.80
2018-08-03T22:53:10.880Z,23.80
2018-08-03T22:55:40.659Z,23.80
2018-08-03T22:58:09.449Z,23.80
2018-08-03T23:00:38.356Z,23.70
2018-08-03T23:03:07.239Z,23.70
2018-08-03T23:05:36.627Z,23.70
2018-08-03T23:08:05.677Z,23.60
2018-08-03T23:10:34.430Z,23.60
2018-08-03T23:13:03.283Z,23.50
2018-08-03T23:15:32.141Z,23.60
2018-08-03T23:18:00.912Z,23.60
2018-08-03T23:20:29.704Z,23.60
2018-08-03T23:22:58.571Z,23.60
2018-08-03T23:25:27.407Z,23.60
2018-08-03T23:27:56.247Z,23.60
2018-08-03T23:30:25.150Z,23.60
2018-08-03T23:32:54.160Z,23.60
2018-08-03T23:35:23.042Z,23.60
2018-08-03T23:37:51.992Z,23.50
2018-08-03T23:40:20.894Z,23.50
2018-08-03T23:42:49.804Z,23.50
2018-08-03T23:45:18.617Z,23.40
2018-08-03T23:47:47.395Z,23.40
2018-08-03T23:50:18.678Z,23.40
2018-08-03T23:52:49.296Z,23.30
2018-08-03T23:55:18.061Z,23.20
2018-08-03T23:57:46.990Z,23.20
